Archival Weather

Heathrow

Heathrow, United Kingdom (EGLL)

Report from: Thursday, June 23, 2022 7:50 AM BST
Current time: Tuesday, August 16, 2022 8:51 AM BST

Current weather
Weather history
Weather forecast

Temperature17.0°C (62.6°F)
Dew point12.0°C (53.6°F)
Winds 4 kts (2.1 m/s, 4.6 mph) Vrb
Winds variableWinds variable from East-Northeast (70°) to North (350°)
Visibility6.2 mi. (10 km)
Clouds Sky clear
Altimeter29.85 in.Hg (1011 mB)
Relative humidity72 %
Density altitude508 ft. (155 m)
Remarks Fully automated report
Corrected report
No clouds detected
No significant changes expected in the next two hours
Flight conditions Visual Meteorological Conditions
Raw dataCOR EGLL 230650Z AUTO 04004KT 350V070 9999 NCD 17/12 Q1011 NOSIG
An error has occurred. This application may no longer respond until reloaded. Reload 🗙